Time;durP1;ratioP1;P1;durP2;ratioP2;P2;SDS_P1;SDS_P2;PMS_P1;PMS_P2;Temp;Humidity;BMP_temperature;BMP_pressure;BME280_temperature;BME280_humidity;BME280_pressure;Samples;Min_cycle;Max_cycle;Signal;HPM_P1;HPM_P2
2022/11/23 00:02:26;;;;;;;3.30;3.00;;;6.30;99.90;;;;;;5050298;28;20222;-73
2022/11/23 00:04:53;;;;;;;2.88;2.67;;;6.30;99.90;;;;;;5051443;28;20203;-72
2022/11/23 00:07:20;;;;;;;2.47;2.38;;;6.30;99.90;;;;;;5051661;28;20246;-72
2022/11/23 00:09:47;;;;;;;2.50;2.40;;;6.40;99.90;;;;;;5045861;28;20611;-72
2022/11/23 00:12:14;;;;;;;2.58;2.47;;;6.30;99.90;;;;;;5055099;28;20215;-72
2022/11/23 00:14:41;;;;;;;2.33;2.22;;;6.30;99.90;;;;;;5054847;28;20663;-72
2022/11/23 00:17:10;;;;;;;1.42;1.42;;;6.40;99.90;;;;;;5048289;28;20292;-72
2022/11/23 00:19:38;;;;;;;1.77;1.67;;;6.40;99.90;;;;;;5049651;28;20202;-73
2022/11/23 00:22:05;;;;;;;1.70;1.70;;;6.40;99.90;;;;;;5050544;28;20633;-73
2022/11/23 00:24:33;;;;;;;1.90;1.80;;;6.40;99.90;;;;;;5055752;28;20659;-72
2022/11/23 00:27:00;;;;;;;1.63;1.63;;;6.50;99.90;;;;;;5047646;28;20284;-74
2022/11/23 00:29:27;;;;;;;1.88;1.88;;;6.50;99.90;;;;;;5050928;28;20194;-74
2022/11/23 00:31:54;;;;;;;1.85;1.75;;;6.50;99.90;;;;;;5048968;28;20302;-74
2022/11/23 00:34:23;;;;;;;1.90;1.90;;;6.50;99.90;;;;;;5049400;28;20202;-74
2022/11/23 00:36:52;;;;;;;2.08;1.98;;;6.50;99.90;;;;;;5046570;28;20225;-74
2022/11/23 00:39:19;;;;;;;2.20;2.10;;;6.50;99.90;;;;;;5049485;28;20241;-74
2022/11/23 00:41:46;;;;;;;1.90;1.80;;;6.40;99.90;;;;;;5043921;28;20269;-74
2022/11/23 00:44:13;;;;;;;2.10;2.00;;;6.40;99.90;;;;;;5052388;28;20203;-71
2022/11/23 00:46:40;;;;;;;2.10;2.00;;;6.40;99.90;;;;;;5048242;28;20219;-73
2022/11/23 00:49:08;;;;;;;2.30;2.20;;;6.30;99.90;;;;;;5051994;28;20998;-73
2022/11/23 00:51:38;;;;;;;2.03;1.92;;;6.30;99.90;;;;;;5050748;28;20306;-73
2022/11/23 00:54:06;;;;;;;1.63;1.63;;;6.20;99.90;;;;;;5046570;28;20221;-73
2022/11/23 00:56:35;;;;;;;2.22;2.13;;;6.20;99.90;;;;;;5049403;28;20265;-73
2022/11/23 00:59:03;;;;;;;1.88;1.77;;;6.20;99.90;;;;;;5048668;28;20207;-73
2022/11/23 01:01:33;;;;;;;1.75;1.75;;;6.20;99.90;;;;;;5049796;28;20226;-73
2022/11/23 01:04:02;;;;;;;2.20;2.10;;;6.10;99.90;;;;;;5048073;28;20227;-73
2022/11/23 01:06:31;;;;;;;1.70;1.70;;;6.10;99.90;;;;;;5043655;28;20215;-73
2022/11/23 01:09:04;;;;;;;2.20;2.10;;;6.00;99.90;;;;;;5051148;28;20207;-73
2022/11/23 01:11:32;;;;;;;2.10;2.00;;;6.00;99.90;;;;;;5049091;28;20219;-73
2022/11/23 01:14:00;;;;;;;1.98;1.98;;;6.00;99.90;;;;;;5050519;28;20734;-73
2022/11/23 01:16:29;;;;;;;1.92;1.83;;;6.00;99.90;;;;;;5046103;28;20215;-73
2022/11/23 01:18:58;;;;;;;2.20;2.10;;;6.00;99.90;;;;;;5055066;28;20199;-73
2022/11/23 01:21:26;;;;;;;2.03;1.92;;;5.90;99.90;;;;;;5055032;28;20223;-72
2022/11/23 01:23:54;;;;;;;1.60;1.50;;;5.80;99.90;;;;;;5052764;28;20208;-72
2022/11/23 01:26:23;;;;;;;1.88;1.88;;;5.80;99.90;;;;;;5052855;28;20710;-74
2022/11/23 01:28:50;;;;;;;2.00;1.90;;;5.80;99.90;;;;;;5046324;28;20219;-73
2022/11/23 01:31:20;;;;;;;2.42;2.33;;;5.80;99.90;;;;;;5047557;28;20766;-73
2022/11/23 01:33:48;;;;;;;1.90;1.90;;;5.70;99.90;;;;;;5052159;28;20191;-72
2022/11/23 01:36:17;;;;;;;2.17;2.10;;;5.70;99.90;;;;;;5050925;28;20218;-73
2022/11/23 01:38:45;;;;;;;1.85;1.83;;;5.70;99.90;;;;;;5047171;28;20230;-72
2022/11/23 01:41:15;;;;;;;1.90;1.90;;;5.70;99.90;;;;;;5041793;28;20708;-73
2022/11/23 01:43:44;;;;;;;1.65;1.65;;;5.80;99.90;;;;;;5050851;28;20210;-73
2022/11/23 01:46:11;;;;;;;1.92;1.92;;;5.90;99.90;;;;;;5053991;28;20222;-73
2022/11/23 01:48:45;;;;;;;1.50;1.50;;;6.10;99.90;;;;;;5065080;28;20218;-73
2022/11/23 01:51:14;;;;;;;1.95;1.95;;;6.10;99.90;;;;;;5047215;28;20227;-73
2022/11/23 01:53:43;;;;;;;1.63;1.63;;;6.10;99.90;;;;;;5047990;28;20202;-73
2022/11/23 01:56:15;;;;;;;2.03;1.92;;;6.10;99.90;;;;;;5050497;28;20223;-73
2022/11/23 01:58:47;;;;;;;2.25;2.15;;;6.00;99.90;;;;;;5050253;28;20203;-74
2022/11/23 02:01:15;;;;;;;1.80;1.80;;;6.10;99.90;;;;;;5046298;28;20727;-74
2022/11/23 02:03:43;;;;;;;1.77;1.77;;;6.00;99.90;;;;;;5048673;28;20213;-73
2022/11/23 02:06:16;;;;;;;2.00;1.90;;;6.00;99.90;;;;;;5049630;28;20631;-73
2022/11/23 02:08:44;;;;;;;2.05;2.05;;;6.00;99.90;;;;;;5052875;28;20203;-74
2022/11/23 02:11:13;;;;;;;1.90;1.80;;;6.00;99.90;;;;;;5045525;28;20270;-74
2022/11/23 02:13:44;;;;;;;2.10;2.00;;;5.90;99.90;;;;;;5045620;28;20202;-73
2022/11/23 02:16:13;;;;;;;1.90;1.90;;;5.90;99.90;;;;;;5046707;28;20230;-72
2022/11/23 02:18:44;;;;;;;1.90;1.90;;;5.90;99.90;;;;;;5051043;28;20199;-73
2022/11/23 02:21:11;;;;;;;1.85;1.85;;;5.90;99.90;;;;;;5044268;28;20230;-72
2022/11/23 02:23:46;;;;;;;1.90;1.90;;;5.90;99.90;;;;;;5051144;28;20207;-73
2022/11/23 02:26:19;;;;;;;1.65;1.65;;;5.90;99.90;;;;;;5045175;28;20272;-72
2022/11/23 02:28:51;;;;;;;1.80;1.80;;;5.90;99.90;;;;;;5052099;28;20225;-73
2022/11/23 02:31:18;;;;;;;2.15;2.05;;;5.90;99.90;;;;;;5050410;28;20273;-72
2022/11/23 02:33:45;;;;;;;1.77;1.77;;;5.90;99.90;;;;;;5048343;28;20217;-73
2022/11/23 02:36:35;;;;;;;2.03;1.95;;;5.80;99.90;;;;;;5048068;28;20222;-73
2022/11/23 02:39:07;;;;;;;2.33;2.22;;;5.80;99.90;;;;;;5047231;28;20191;-73
2022/11/23 02:41:38;;;;;;;2.08;1.98;;;5.80;99.90;;;;;;5046966;28;20241;-74
2022/11/23 02:44:16;;;;;;;1.88;1.77;;;5.80;99.90;;;;;;5048600;28;20195;-73
2022/11/23 02:46:43;;;;;;;2.17;2.08;;;5.80;99.90;;;;;;5050238;28;20225;-73
2022/11/23 02:49:10;;;;;;;2.30;2.20;;;5.70;99.90;;;;;;5043580;28;20225;-73
2022/11/23 02:51:37;;;;;;;2.67;2.58;;;5.70;99.90;;;;;;5046109;28;20219;-73
2022/11/23 02:54:04;;;;;;;2.42;2.30;;;5.70;99.90;;;;;;5047996;28;20199;-74
2022/11/23 02:56:32;;;;;;;2.00;1.90;;;5.70;99.90;;;;;;5047854;28;20225;-73
2022/11/23 02:59:00;;;;;;;2.42;2.22;;;5.70;99.90;;;;;;5046926;28;20199;-73
2022/11/23 03:01:29;;;;;;;2.22;2.13;;;5.70;99.90;;;;;;5044293;28;20227;-74
2022/11/23 03:03:56;;;;;;;2.33;2.22;;;5.70;99.90;;;;;;5051504;28;20265;-73
2022/11/23 03:06:23;;;;;;;2.00;1.90;;;5.70;99.90;;;;;;5050812;28;20211;-73
2022/11/23 03:08:51;;;;;;;1.83;1.83;;;5.60;99.90;;;;;;5050942;28;20219;-73
2022/11/23 03:11:18;;;;;;;1.95;1.85;;;5.60;99.90;;;;;;5040563;28;20721;-74
2022/11/23 03:13:45;;;;;;;2.22;2.13;;;5.60;99.90;;;;;;5048013;28;20198;-73
2022/11/23 03:16:15;;;;;;;2.42;2.33;;;5.60;99.90;;;;;;5048355;28;20234;-74
2022/11/23 03:18:43;;;;;;;1.83;1.73;;;5.60;99.90;;;;;;5047016;28;20290;-73
2022/11/23 03:21:10;;;;;;;2.25;2.03;;;5.60;99.90;;;;;;5041871;28;20223;-73
2022/11/23 03:23:37;;;;;;;2.20;2.10;;;5.60;99.90;;;;;;5048816;28;20198;-73
2022/11/23 03:26:05;;;;;;;2.38;2.22;;;5.50;99.90;;;;;;5048857;28;20222;-73
2022/11/23 03:28:33;;;;;;;2.35;2.17;;;5.60;99.90;;;;;;5049075;28;20362;-73
2022/11/23 03:31:00;;;;;;;1.65;1.65;;;5.60;99.90;;;;;;5046701;28;20226;-73
2022/11/23 03:33:29;;;;;;;1.65;1.65;;;5.60;99.90;;;;;;5048601;28;20191;-73
2022/11/23 03:35:56;;;;;;;2.08;1.90;;;5.60;99.90;;;;;;5050520;28;20219;-73
2022/11/23 03:38:23;;;;;;;1.67;1.67;;;5.70;99.90;;;;;;5051730;28;20277;-73
2022/11/23 03:40:51;;;;;;;1.58;1.58;;;5.70;99.90;;;;;;5050387;28;20234;-73
2022/11/23 03:43:18;;;;;;;2.00;1.90;;;5.60;99.90;;;;;;5049770;28;20682;-73
2022/11/23 03:45:46;;;;;;;1.75;1.65;;;5.60;99.90;;;;;;5049278;28;20282;-73
2022/11/23 03:48:14;;;;;;;2.08;1.98;;;5.60;99.90;;;;;;5053743;28;20293;-73
2022/11/23 03:50:43;;;;;;;1.73;1.73;;;5.60;99.90;;;;;;5046441;28;20207;-73
2022/11/23 03:53:11;;;;;;;1.90;1.90;;;5.70;99.90;;;;;;5055201;28;20229;-73
2022/11/23 03:55:38;;;;;;;1.90;1.90;;;5.60;99.90;;;;;;5052698;28;20195;-73
2022/11/23 03:58:06;;;;;;;2.10;2.00;;;5.60;99.90;;;;;;5051922;28;20207;-73
2022/11/23 04:00:33;;;;;;;2.20;2.10;;;5.60;99.90;;;;;;5046155;28;20198;-75
2022/11/23 04:03:00;;;;;;;2.10;2.00;;;5.60;99.90;;;;;;5049903;28;20268;-74
2022/11/23 04:05:28;;;;;;;1.80;1.70;;;5.60;99.90;;;;;;5050302;28;20256;-75
2022/11/23 04:07:56;;;;;;;2.13;2.03;;;5.60;99.90;;;;;;5050889;28;20862;-73
2022/11/23 04:10:24;;;;;;;1.92;1.92;;;5.60;99.90;;;;;;5052463;28;20195;-74
2022/11/23 04:12:52;;;;;;;2.03;1.92;;;5.60;99.90;;;;;;5053217;28;20809;-73
2022/11/23 04:15:21;;;;;;;2.25;2.15;;;5.60;99.90;;;;;;5052726;28;20202;-74
2022/11/23 04:17:49;;;;;;;2.10;2.00;;;5.50;99.90;;;;;;5049487;28;20767;-74
2022/11/23 04:20:16;;;;;;;1.60;1.60;;;5.50;99.90;;;;;;5051097;28;20206;-73
2022/11/23 04:22:44;;;;;;;1.80;1.80;;;5.50;99.90;;;;;;5048668;28;20885;-73
2022/11/23 04:25:13;;;;;;;1.83;1.83;;;5.50;99.90;;;;;;5057302;28;20205;-73
2022/11/23 04:27:40;;;;;;;1.75;1.75;;;5.40;99.90;;;;;;5052539;28;20215;-73
2022/11/23 04:30:09;;;;;;;1.80;1.70;;;5.40;99.90;;;;;;5056887;28;20210;-73
2022/11/23 04:32:36;;;;;;;2.30;2.20;;;5.30;99.90;;;;;;5046169;28;20237;-72
2022/11/23 04:35:04;;;;;;;1.92;1.92;;;5.20;99.90;;;;;;5053933;28;20202;-74
2022/11/23 04:37:31;;;;;;;2.08;1.98;;;5.20;99.90;;;;;;5065211;28;20227;-73
2022/11/23 04:39:59;;;;;;;1.65;1.65;;;5.20;99.90;;;;;;5049484;28;20214;-72
2022/11/23 04:42:27;;;;;;;1.85;1.77;;;5.20;99.90;;;;;;5047406;28;20230;-73
2022/11/23 04:44:56;;;;;;;2.20;2.15;;;5.20;99.90;;;;;;5047459;28;20625;-73
2022/11/23 04:47:24;;;;;;;2.08;1.98;;;5.20;99.90;;;;;;5053232;28;20218;-73
2022/11/23 04:49:51;;;;;;;2.00;1.90;;;5.20;99.90;;;;;;5049256;28;20223;-73
2022/11/23 04:52:19;;;;;;;2.10;2.00;;;5.10;99.90;;;;;;5047072;28;20231;-73
2022/11/23 04:54:46;;;;;;;2.28;2.17;;;5.10;99.90;;;;;;5045070;28;20935;-73
2022/11/23 04:57:13;;;;;;;2.15;2.05;;;5.10;99.90;;;;;;5053396;28;20218;-72
2022/11/23 04:59:42;;;;;;;2.15;2.05;;;5.00;99.90;;;;;;5050544;28;20191;-73
2022/11/23 05:02:10;;;;;;;2.65;2.55;;;5.00;99.90;;;;;;5047183;28;20258;-73
2022/11/23 05:04:37;;;;;;;3.20;2.92;;;5.00;99.90;;;;;;5049934;28;20226;-74
2022/11/23 05:07:04;;;;;;;3.38;3.08;;;4.90;99.90;;;;;;5047918;28;20273;-73
2022/11/23 05:09:32;;;;;;;3.03;2.72;;;5.00;99.90;;;;;;5051078;28;20241;-73
2022/11/23 05:11:59;;;;;;;3.42;3.22;;;5.00;99.90;;;;;;5049581;28;20725;-73
2022/11/23 05:14:27;;;;;;;3.58;3.28;;;5.00;99.90;;;;;;5051597;28;20199;-73
2022/11/23 05:16:56;;;;;;;3.05;2.85;;;5.00;99.90;;;;;;5049853;28;20269;-73
2022/11/23 05:19:23;;;;;;;3.50;3.20;;;5.00;99.90;;;;;;5046932;28;20211;-73
2022/11/23 05:21:50;;;;;;;3.92;3.67;;;5.00;99.90;;;;;;5051637;28;20223;-73
2022/11/23 05:24:17;;;;;;;2.90;2.70;;;4.90;99.90;;;;;;5052402;28;20572;-73
2022/11/23 05:26:44;;;;;;;2.80;2.60;;;4.90;99.90;;;;;;5043614;28;20280;-72
2022/11/23 05:29:12;;;;;;;3.45;3.15;;;4.90;99.90;;;;;;5042776;28;20222;-73
2022/11/23 05:31:39;;;;;;;3.08;2.90;;;4.90;99.90;;;;;;5047679;28;20215;-73
2022/11/23 05:34:08;;;;;;;2.95;2.75;;;4.90;99.90;;;;;;5053350;28;20208;-74
2022/11/23 05:36:35;;;;;;;2.38;2.28;;;4.90;99.90;;;;;;5048607;28;20352;-74
2022/11/23 05:39:03;;;;;;;2.88;2.70;;;4.90;99.90;;;;;;5046581;28;20198;-73
2022/11/23 05:41:30;;;;;;;2.63;2.53;;;4.90;99.90;;;;;;5046600;28;20280;-74
2022/11/23 05:43:57;;;;;;;2.35;2.25;;;4.90;99.90;;;;;;5052235;28;20207;-74
2022/11/23 05:46:24;;;;;;;2.35;2.25;;;4.90;99.90;;;;;;5048659;28;20217;-75
2022/11/23 05:48:52;;;;;;;2.30;2.20;;;4.80;99.90;;;;;;5051063;28;20222;-74
2022/11/23 05:51:21;;;;;;;2.45;2.35;;;4.80;99.90;;;;;;5052780;28;20214;-74
2022/11/23 05:53:48;;;;;;;2.20;2.10;;;4.80;99.90;;;;;;5053729;28;20195;-74
2022/11/23 05:56:15;;;;;;;2.38;2.28;;;4.80;99.90;;;;;;5050445;28;20214;-74
2022/11/23 05:58:43;;;;;;;2.30;2.20;;;4.80;99.90;;;;;;5052037;28;20256;-74
2022/11/23 06:01:10;;;;;;;2.38;2.28;;;4.70;99.90;;;;;;5049642;28;20219;-73
2022/11/23 06:03:37;;;;;;;2.92;2.83;;;4.70;99.90;;;;;;5043479;28;20200;-73
2022/11/23 06:06:05;;;;;;;2.50;2.40;;;4.60;99.90;;;;;;5046389;28;20227;-73
2022/11/23 06:08:33;;;;;;;2.13;2.03;;;4.60;99.90;;;;;;5046750;28;20588;-73
2022/11/23 06:11:03;;;;;;;2.50;2.40;;;4.60;99.90;;;;;;5047035;28;20219;-73
2022/11/23 06:13:30;;;;;;;2.30;2.20;;;4.60;99.90;;;;;;5055556;28;20199;-73
2022/11/23 06:15:57;;;;;;;1.98;1.88;;;4.50;99.90;;;;;;5052895;28;20285;-72
2022/11/23 06:18:24;;;;;;;2.38;2.28;;;4.50;99.90;;;;;;5051024;28;20192;-73
2022/11/23 06:20:52;;;;;;;2.40;2.30;;;4.50;99.90;;;;;;5052603;28;20729;-72
2022/11/23 06:23:19;;;;;;;2.50;2.40;;;4.40;99.90;;;;;;5054942;28;20195;-72
2022/11/23 06:25:48;;;;;;;2.60;2.50;;;4.40;99.90;;;;;;5049714;28;20227;-72
2022/11/23 06:28:15;;;;;;;2.25;2.15;;;4.40;99.90;;;;;;5044122;28;20275;-72
2022/11/23 06:30:43;;;;;;;2.40;2.30;;;4.50;99.90;;;;;;5045963;28;20207;-72
2022/11/23 06:33:10;;;;;;;2.70;2.60;;;4.50;99.90;;;;;;5049871;28;20202;-72
2022/11/23 06:35:37;;;;;;;2.80;2.70;;;4.50;99.90;;;;;;5049126;28;20209;-73
2022/11/23 06:38:05;;;;;;;2.78;2.67;;;4.50;99.90;;;;;;5049752;28;20202;-73
2022/11/23 06:40:32;;;;;;;2.78;2.58;;;4.50;99.90;;;;;;5044011;28;20206;-73
2022/11/23 06:43:01;;;;;;;3.63;3.40;;;4.50;99.90;;;;;;5045413;28;20218;-74
2022/11/23 06:45:28;;;;;;;3.60;3.40;;;4.50;99.90;;;;;;5048906;28;20210;-74
2022/11/23 06:47:56;;;;;;;4.22;3.92;;;4.50;99.90;;;;;;5047727;28;20202;-73
2022/11/23 06:50:24;;;;;;;4.13;3.83;;;4.60;99.90;;;;;;5046617;28;20311;-74
2022/11/23 06:52:55;;;;;;;4.75;4.35;;;4.60;99.90;;;;;;5042743;28;20292;-73
2022/11/23 06:55:23;;;;;;;3.90;3.60;;;4.70;99.90;;;;;;5036260;28;20302;-74
2022/11/23 06:57:50;;;;;;;3.88;3.58;;;4.80;99.90;;;;;;5051604;28;20619;-74
2022/11/23 07:00:20;;;;;;;3.33;3.10;;;4.70;99.90;;;;;;5043540;28;20199;-72
2022/11/23 07:02:52;;;;;;;3.33;3.13;;;4.70;99.90;;;;;;5043108;28;20759;-74
2022/11/23 07:05:21;;;;;;;3.63;3.33;;;4.60;99.90;;;;;;5047654;28;20954;-74
2022/11/23 07:07:49;;;;;;;3.72;3.42;;;4.60;99.90;;;;;;5049885;28;20225;-73
2022/11/23 07:10:17;;;;;;;3.25;3.05;;;4.60;99.90;;;;;;5048942;28;20211;-73
2022/11/23 07:12:44;;;;;;;3.30;3.10;;;4.60;99.90;;;;;;5047643;28;20223;-72
2022/11/23 07:15:12;;;;;;;3.30;3.10;;;4.60;99.90;;;;;;5045685;28;20206;-73
2022/11/23 07:17:43;;;;;;;3.17;2.97;;;4.60;99.90;;;;;;5052530;28;20713;-73
2022/11/23 07:20:12;;;;;;;2.97;2.88;;;4.60;99.90;;;;;;5049833;28;20183;-74
2022/11/23 07:22:39;;;;;;;3.30;3.10;;;4.60;99.90;;;;;;5043924;28;20231;-74
2022/11/23 07:25:07;;;;;;;2.40;2.30;;;4.60;99.90;;;;;;5050685;28;20201;-74
2022/11/23 07:27:35;;;;;;;2.78;2.67;;;4.60;99.90;;;;;;5051078;28;20706;-74
2022/11/23 07:30:02;;;;;;;3.25;3.05;;;4.60;99.90;;;;;;5047539;28;20211;-73
2022/11/23 07:32:30;;;;;;;2.92;2.72;;;4.70;99.90;;;;;;5045984;28;20218;-74
2022/11/23 07:34:58;;;;;;;2.83;2.72;;;4.70;99.90;;;;;;5045290;28;20229;-73
2022/11/23 07:37:26;;;;;;;2.80;2.70;;;4.70;99.90;;;;;;5045617;28;20817;-73
2022/11/23 07:39:53;;;;;;;2.20;2.10;;;4.70;99.90;;;;;;5047076;28;20210;-72
2022/11/23 07:42:21;;;;;;;2.30;2.20;;;4.70;99.90;;;;;;5048435;28;20226;-73
2022/11/23 07:44:48;;;;;;;2.50;2.40;;;4.80;99.90;;;;;;5047688;28;20207;-73
2022/11/23 07:47:16;;;;;;;2.70;2.60;;;4.80;99.90;;;;;;5042118;28;20218;-73
2022/11/23 07:49:43;;;;;;;2.72;2.53;;;4.80;99.90;;;;;;5045921;28;20227;-73
2022/11/23 07:52:11;;;;;;;2.88;2.72;;;4.80;99.90;;;;;;5042852;28;20231;-74
2022/11/23 07:54:39;;;;;;;2.75;2.63;;;4.80;99.90;;;;;;5064814;28;20202;-75
2022/11/23 07:57:06;;;;;;;2.75;2.65;;;4.80;99.90;;;;;;5048129;28;20234;-74
2022/11/23 07:59:33;;;;;;;2.80;2.70;;;5.60;99.90;;;;;;5053597;28;20199;-74
2022/11/23 08:02:00;;;;;;;2.55;2.35;;;6.90;99.90;;;;;;5044196;28;20234;-74
2022/11/23 08:04:28;;;;;;;2.80;2.70;;;8.20;99.90;;;;;;5045629;28;20692;-75
2022/11/23 08:06:56;;;;;;;2.83;2.70;;;9.30;99.90;;;;;;5041789;28;20928;-74
2022/11/23 08:09:25;;;;;;;2.45;2.35;;;10.10;99.90;;;;;;5044493;28;20309;-73
2022/11/23 08:11:52;;;;;;;2.90;2.80;;;10.90;99.90;;;;;;5043686;28;20223;-73
2022/11/23 08:14:19;;;;;;;2.60;2.50;;;11.60;99.90;;;;;;5049564;28;20575;-74
2022/11/23 08:16:50;;;;;;;2.88;2.67;;;12.20;99.90;;;;;;5045388;28;20218;-74
2022/11/23 08:19:17;;;;;;;2.22;2.13;;;12.70;99.90;;;;;;5041311;28;20278;-74
2022/11/23 08:21:45;;;;;;;2.10;2.00;;;13.00;99.90;;;;;;5041345;28;20227;-72
2022/11/23 08:24:12;;;;;;;2.20;2.10;;;13.30;99.90;;;;;;5047576;28;20722;-73
2022/11/23 08:26:42;;;;;;;2.10;2.00;;;13.40;99.90;;;;;;5045854;28;20913;-72
2022/11/23 08:29:09;;;;;;;1.90;1.80;;;13.50;99.90;;;;;;5048015;28;20815;-72
2022/11/23 08:31:36;;;;;;;2.00;1.90;;;13.70;99.90;;;;;;5043987;28;20234;-72
2022/11/23 08:34:03;;;;;;;2.40;2.20;;;14.00;99.90;;;;;;5047305;28;20225;-72
2022/11/23 08:36:31;;;;;;;1.98;1.88;;;14.30;99.90;;;;;;5043708;28;20224;-72
2022/11/23 08:38:58;;;;;;;1.88;1.77;;;14.40;99.90;;;;;;5048098;28;20202;-72
2022/11/23 08:41:26;;;;;;;1.90;1.80;;;14.60;99.90;;;;;;5043128;28;20284;-74
2022/11/23 08:43:55;;;;;;;2.20;2.10;;;14.80;99.90;;;;;;5047570;28;20612;-74
2022/11/23 08:46:22;;;;;;;1.85;1.75;;;15.10;99.90;;;;;;5049030;28;20219;-73
2022/11/23 08:48:49;;;;;;;1.85;1.75;;;15.30;99.90;;;;;;5050607;28;20199;-74
2022/11/23 08:51:21;;;;;;;1.75;1.65;;;15.40;99.90;;;;;;5044656;28;20227;-72
2022/11/23 08:53:48;;;;;;;1.77;1.67;;;15.20;99.90;;;;;;5043658;28;20622;-74
2022/11/23 08:56:15;;;;;;;1.80;1.70;;;15.30;99.90;;;;;;5042684;28;20229;-74
2022/11/23 08:58:43;;;;;;;1.65;1.55;;;15.30;99.90;;;;;;5044635;28;20199;-74
2022/11/23 09:01:13;;;;;;;1.55;1.45;;;15.20;99.90;;;;;;5044584;28;20638;-74
2022/11/23 09:03:41;;;;;;;1.67;1.58;;;15.60;99.90;;;;;;5051639;28;20246;-75
2022/11/23 09:06:10;;;;;;;2.45;1.85;;;16.90;99.90;;;;;;5047080;28;20231;-73
2022/11/23 09:08:37;;;;;;;1.92;1.60;;;18.60;99.90;;;;;;5053780;28;20203;-71
2022/11/23 09:11:07;;;;;;;1.75;1.65;;;20.20;99.90;;;;;;5044201;28;20233;-74
2022/11/23 09:13:36;;;;;;;2.00;1.85;;;21.90;99.90;;;;;;5047018;28;20770;-74
2022/11/23 09:16:05;;;;;;;1.77;1.67;;;23.20;93.90;;;;;;5046204;28;20222;-74
2022/11/23 09:18:35;;;;;;;1.80;1.70;;;24.10;89.90;;;;;;5045414;28;20203;-74
2022/11/23 09:21:04;;;;;;;1.75;1.65;;;24.70;85.20;;;;;;5044883;28;20230;-73
2022/11/23 09:23:32;;;;;;;1.95;1.85;;;25.40;79.30;;;;;;5045279;28;20860;-72
2022/11/23 09:26:00;;;;;;;1.80;1.70;;;25.70;78.30;;;;;;5047018;28;20593;-73
2022/11/23 09:28:28;;;;;;;1.98;1.88;;;25.90;73.80;;;;;;5040492;28;20194;-72
2022/11/23 09:30:56;;;;;;;1.85;1.70;;;25.60;72.80;;;;;;5044470;28;20305;-73
2022/11/23 09:33:24;;;;;;;2.10;1.70;;;24.90;72.10;;;;;;5054838;28;20194;-73
2022/11/23 09:35:59;;;;;;;2.08;1.95;;;23.90;74.20;;;;;;5045322;28;20230;-72
2022/11/23 09:38:27;;;;;;;2.10;2.00;;;22.20;77.40;;;;;;5042028;28;20202;-73
2022/11/23 09:41:03;;;;;;;1.80;1.70;;;20.50;84.30;;;;;;5045775;28;20699;-74
2022/11/23 09:43:41;;;;;;;2.35;2.15;;;19.20;87.60;;;;;;5044481;28;20217;-76
2022/11/23 09:46:15;;;;;;;2.17;2.08;;;18.00;92.00;;;;;;5042327;28;20295;-75
2022/11/23 09:49:09;;;;;;;1.90;1.80;;;17.30;94.30;;;;;;5044751;28;20206;-74
2022/11/23 09:51:39;;;;;;;2.53;2.33;;;17.10;95.90;;;;;;5040300;28;21568;-75
2022/11/23 09:54:16;;;;;;;2.22;2.10;;;17.00;97.00;;;;;;5041532;28;20669;-74
2022/11/23 09:56:48;;;;;;;1.85;1.75;;;16.30;97.40;;;;;;5045340;28;20221;-75
2022/11/23 09:59:25;;;;;;;2.05;1.90;;;16.10;99.40;;;;;;5048748;28;20194;-74
2022/11/23 10:01:53;;;;;;;2.03;1.92;;;16.20;99.90;;;;;;5059256;28;20698;-74
2022/11/23 10:04:21;;;;;;;2.75;1.75;;;16.00;99.90;;;;;;5043331;28;20198;-75
2022/11/23 10:06:57;;;;;;;3.17;1.98;;;16.20;99.90;;;;;;5044260;28;20219;-75
2022/11/23 10:09:37;;;;;;;1.95;1.70;;;16.30;99.90;;;;;;5040912;28;20722;-75
2022/11/23 10:12:26;;;;;;;2.40;2.00;;;16.30;99.90;;;;;;5045750;28;20644;-75
2022/11/23 10:15:05;;;;;;;3.10;2.10;;;16.20;99.90;;;;;;5044971;28;20228;-74
2022/11/23 10:17:53;;;;;;;1.80;1.70;;;15.80;99.90;;;;;;5046782;28;20756;-73
2022/11/23 10:20:34;;;;;;;1.85;1.75;;;16.00;99.90;;;;;;5047406;28;20731;-74
2022/11/23 10:23:07;;;;;;;1.70;1.60;;;16.40;99.90;;;;;;5046451;28;20256;-74
2022/11/23 10:25:42;;;;;;;2.58;1.92;;;16.30;99.90;;;;;;5047724;28;20195;-75
2022/11/23 10:28:13;;;;;;;1.90;1.80;;;16.60;99.90;;;;;;5046459;28;20206;-75
2022/11/23 10:30:41;;;;;;;1.83;1.73;;;16.70;99.50;;;;;;5040636;28;20612;-74
2022/11/23 10:33:21;;;;;;;1.80;1.70;;;16.80;99.40;;;;;;5046637;28;20202;-75
2022/11/23 10:35:49;;;;;;;1.52;1.42;;;17.00;98.50;;;;;;5044598;28;20230;-74
2022/11/23 10:38:19;;;;;;;1.75;1.58;;;16.80;98.50;;;;;;5046629;28;20702;-74
2022/11/23 10:40:57;;;;;;;1.52;1.42;;;16.40;98.70;;;;;;5051293;28;20198;-75
2022/11/23 10:43:28;;;;;;;1.35;1.23;;;16.10;98.40;;;;;;5043670;28;20556;-74
2022/11/23 10:46:26;;;;;;;1.77;1.67;;;16.00;99.00;;;;;;5050599;28;20235;-74
2022/11/23 10:48:54;;;;;;;1.40;1.30;;;16.10;97.70;;;;;;5044694;28;20285;-74
2022/11/23 10:51:27;;;;;;;2.75;1.27;;;16.20;98.10;;;;;;5047755;28;20908;-75
2022/11/23 10:54:00;;;;;;;1.45;1.30;;;16.20;98.40;;;;;;5049304;28;20230;-73
2022/11/23 10:56:28;;;;;;;1.55;1.33;;;16.40;98.10;;;;;;5049450;28;20594;-74
2022/11/23 10:58:55;;;;;;;1.67;1.58;;;16.70;98.00;;;;;;5049359;28;20199;-75
2022/11/23 11:01:24;;;;;;;1.50;1.40;;;16.90;97.70;;;;;;5047203;28;20585;-74
2022/11/23 11:03:52;;;;;;;1.38;1.27;;;16.90;97.80;;;;;;5048760;28;20212;-74
2022/11/23 11:06:25;;;;;;;1.50;1.40;;;16.70;97.70;;;;;;5049718;28;20218;-74
2022/11/23 11:08:54;;;;;;;2.10;1.40;;;16.60;97.20;;;;;;5046456;28;20545;-75
2022/11/23 11:11:27;;;;;;;2.03;1.30;;;16.80;97.60;;;;;;5047012;28;20222;-75
2022/11/23 11:14:04;;;;;;;1.65;1.42;;;16.70;97.70;;;;;;5053972;28;20198;-74
2022/11/23 11:16:33;;;;;;;1.58;1.48;;;16.80;96.30;;;;;;5050188;28;20287;-74
2022/11/23 11:19:20;;;;;;;1.30;1.20;;;16.80;97.00;;;;;;5051884;28;20199;-75
2022/11/23 11:21:47;;;;;;;1.80;1.20;;;16.60;97.40;;;;;;5044498;28;20737;-75
2022/11/23 11:24:18;;;;;;;2.05;1.70;;;16.70;97.30;;;;;;5048388;28;20206;-74
2022/11/23 11:26:50;;;;;;;1.35;1.25;;;16.60;97.60;;;;;;5051267;28;20280;-75
2022/11/23 11:29:31;;;;;;;1.73;1.30;;;16.80;97.60;;;;;;5049808;28;20736;-74
2022/11/23 11:32:01;;;;;;;1.33;1.23;;;17.00;97.00;;;;;;5045820;28;20238;-72
2022/11/23 11:34:36;;;;;;;1.10;1.10;;;16.90;95.70;;;;;;5042456;28;20635;-73
2022/11/23 11:37:12;;;;;;;2.05;1.48;;;16.80;96.60;;;;;;5044199;28;20246;-73
2022/11/23 11:39:46;;;;;;;2.05;1.58;;;16.80;96.80;;;;;;5062385;28;20223;-74
2022/11/23 11:44:20;;;;;;;1.33;1.23;;;16.90;96.40;;;;;;5127918;27;20269;-76
2022/11/23 11:46:53;;;;;;;1.55;1.45;;;16.90;96.50;;;;;;5131301;27;20212;-76
2022/11/23 11:49:26;;;;;;;1.60;1.50;;;17.00;96.00;;;;;;5104929;28;20228;-76
2022/11/23 11:51:59;;;;;;;1.85;1.45;;;16.80;95.20;;;;;;5100788;28;20239;-77
2022/11/23 11:54:31;;;;;;;1.95;1.42;;;16.70;95.50;;;;;;5105190;28;20318;-77
2022/11/23 11:57:03;;;;;;;1.25;1.23;;;16.70;96.10;;;;;;5099012;28;20224;-74
2022/11/23 11:59:41;;;;;;;1.15;1.15;;;16.80;94.40;;;;;;5101188;28;20213;-75
2022/11/23 12:02:19;;;;;;;1.23;1.13;;;16.50;94.80;;;;;;5099086;28;20223;-74
2022/11/23 12:04:54;;;;;;;1.60;1.50;;;16.50;95.30;;;;;;5101419;28;20694;-75
2022/11/23 12:07:28;;;;;;;1.08;1.08;;;16.50;95.40;;;;;;5094267;28;20216;-76
2022/11/23 12:10:01;;;;;;;1.40;1.30;;;16.70;95.80;;;;;;5103589;28;20197;-75
2022/11/23 12:12:29;;;;;;;1.50;1.40;;;16.70;95.00;;;;;;5101334;28;20213;-76
2022/11/23 12:14:58;;;;;;;1.20;1.20;;;16.50;95.40;;;;;;5099518;27;20193;-75
2022/11/23 12:17:45;;;;;;;1.30;1.30;;;16.50;94.90;;;;;;5100406;28;20244;-74
2022/11/23 12:20:19;;;;;;;2.17;1.45;;;16.30;94.90;;;;;;5098962;28;20208;-76
2022/11/23 12:22:58;;;;;;;1.25;1.25;;;16.10;95.80;;;;;;5098490;27;20277;-75
2022/11/23 12:25:35;;;;;;;1.48;1.38;;;16.10;96.20;;;;;;5099485;28;20247;-77
2022/11/23 12:28:28;;;;;;;1.50;1.40;;;16.10;96.50;;;;;;5089938;28;20279;-75
2022/11/23 12:31:04;;;;;;;2.08;1.42;;;16.20;95.70;;;;;;5096574;27;20337;-74
2022/11/23 12:33:52;;;;;;;1.30;1.20;;;16.10;96.10;;;;;;5099962;28;20193;-73
2022/11/23 12:36:33;;;;;;;1.75;1.65;;;15.40;96.20;;;;;;5084683;27;20771;-73
2022/11/23 12:39:14;;;;;;;1.30;1.30;;;15.30;96.70;;;;;;5095948;28;20223;-74
2022/11/23 12:41:50;;;;;;;1.30;1.10;;;15.40;96.70;;;;;;5102582;27;20220;-75
2022/11/23 12:44:45;;;;;;;1.30;1.20;;;15.50;96.20;;;;;;5106379;28;20528;-75
2022/11/23 12:47:27;;;;;;;1.38;1.27;;;15.40;96.10;;;;;;5104346;27;20224;-76
2022/11/23 12:50:00;;;;;;;1.30;1.20;;;15.60;97.10;;;;;;5083835;28;20309;-76
2022/11/23 12:52:44;;;;;;;1.30;1.20;;;15.40;95.70;;;;;;5097569;27;20216;-75
2022/11/23 12:55:20;;;;;;;1.50;1.40;;;15.10;95.30;;;;;;5082851;28;20617;-76
2022/11/23 12:57:53;;;;;;;1.13;1.13;;;15.10;95.80;;;;;;5080678;28;20623;-74
2022/11/23 13:00:21;;;;;;;1.20;1.20;;;14.90;95.60;;;;;;5082811;28;20193;-75
2022/11/23 13:03:33;;;;;;;1.10;1.10;;;14.90;96.30;;;;;;5083138;28;20360;-75
2022/11/23 13:06:43;;;;;;;1.33;1.20;;;15.00;94.80;;;;;;5065012;28;20256;-75
2022/11/23 13:09:32;;;;;;;2.67;1.40;;;15.20;95.30;;;;;;5081205;28;20301;-76
2022/11/23 13:12:18;;;;;;;1.10;1.10;;;15.20;93.60;;;;;;5089181;28;20217;-74